createdAt,value
2018-03-24T00:01:28.860Z,57.40
2018-03-24T00:03:57.930Z,56.80
2018-03-24T00:06:26.989Z,56.80
2018-03-24T00:08:56.098Z,57.00
2018-03-24T00:11:25.159Z,57.00
2018-03-24T00:13:54.226Z,57.00
2018-03-24T00:16:23.317Z,57.30
2018-03-24T00:18:52.385Z,57.50
2018-03-24T00:21:21.510Z,57.10
2018-03-24T00:23:51.338Z,55.80
2018-03-24T00:26:21.162Z,56.30
2018-03-24T00:28:51.010Z,56.10
2018-03-24T00:31:20.149Z,56.00
2018-03-24T00:33:49.246Z,55.60
2018-03-24T00:36:18.346Z,55.60
2018-03-24T00:38:47.442Z,55.90
2018-03-24T00:41:17.338Z,55.80
2018-03-24T00:43:46.399Z,55.80
2018-03-24T00:46:15.462Z,55.70
2018-03-24T00:48:44.598Z,55.70
2018-03-24T00:51:14.426Z,56.20
2018-03-24T00:53:44.254Z,56.10
2018-03-24T00:56:14.082Z,55.80
2018-03-24T00:58:43.906Z,55.80
2018-03-24T01:01:13.890Z,55.80
2018-03-24T01:03:42.956Z,55.60
2018-03-24T01:06:12.020Z,55.70
2018-03-24T01:08:41.082Z,55.70
2018-03-24T01:11:10.174Z,55.70
2018-03-24T01:13:40.005Z,55.70
2018-03-24T01:16:09.829Z,55.70
2018-03-24T01:18:39.690Z,55.60
2018-03-24T01:21:08.753Z,55.60
2018-03-24T01:23:37.813Z,55.10
2018-03-24T01:26:06.897Z,55.90
2018-03-24T01:28:35.964Z,55.60
2018-03-24T01:31:05.078Z,55.60
2018-03-24T01:33:34.243Z,55.60
2018-03-24T01:36:03.309Z,55.70
2018-03-24T01:38:32.396Z,55.70
2018-03-24T01:41:01.458Z,55.50
2018-03-24T01:43:30.550Z,55.60
2018-03-24T01:46:00.383Z,55.70
2018-03-24T01:48:30.274Z,55.70
2018-03-24T01:50:59.343Z,55.70
2018-03-24T01:53:46.302Z,55.40
2018-03-24T01:56:15.411Z,55.40
2018-03-24T01:58:44.477Z,55.60
2018-03-24T02:01:14.321Z,55.70
2018-03-24T02:03:43.386Z,55.70
2018-03-24T02:06:12.448Z,55.80
2018-03-24T02:08:41.518Z,55.30
2018-03-24T02:11:11.349Z,55.00
2018-03-24T02:13:41.178Z,54.90
2018-03-24T02:16:11.007Z,54.80
2018-03-24T02:18:40.838Z,54.90
2018-03-24T02:21:12.249Z,54.70
2018-03-24T02:23:41.325Z,54.70
2018-03-24T02:26:10.382Z,54.90
2018-03-24T02:28:39.446Z,54.70
2018-03-24T02:31:09.285Z,55.20
2018-03-24T02:33:38.382Z,55.20
2018-03-24T02:36:07.446Z,55.60
2018-03-24T02:38:36.510Z,55.50
2018-03-24T02:41:05.570Z,55.60
2018-03-24T02:43:34.640Z,55.60
2018-03-24T02:46:03.851Z,55.60
2018-03-24T02:48:33.050Z,55.60
2018-03-24T02:51:02.117Z,55.40
2018-03-24T02:53:31.183Z,55.60
2018-03-24T02:56:00.278Z,55.50
2018-03-24T02:58:29.375Z,55.40
2018-03-24T03:00:59.258Z,55.30
2018-03-24T03:03:28.321Z,55.30
2018-03-24T03:05:57.382Z,55.50
2018-03-24T03:08:26.473Z,55.50
2018-03-24T03:10:55.553Z,56.10
2018-03-24T03:13:24.660Z,56.10
2018-03-24T03:15:53.730Z,55.50
2018-03-24T03:18:22.873Z,55.50
2018-03-24T03:20:52.702Z,55.50
2018-03-24T03:23:22.539Z,55.50
2018-03-24T03:25:51.602Z,55.50
2018-03-24T03:28:20.761Z,55.50
2018-03-24T03:30:53.246Z,55.50
2018-03-24T03:33:22.314Z,55.50
2018-03-24T03:35:51.477Z,55.80
2018-03-24T03:38:20.606Z,55.50
2018-03-24T03:40:49.680Z,55.50
2018-03-24T03:43:19.574Z,55.50
2018-03-24T03:45:48.637Z,55.50
2018-03-24T03:48:17.778Z,55.50
2018-03-24T03:50:46.837Z,55.50
2018-03-24T03:53:15.967Z,55.60
2018-03-24T03:55:45.077Z,55.60
2018-03-24T03:58:14.232Z,55.50
2018-03-24T04:00:43.294Z,55.50
2018-03-24T04:03:12.356Z,55.50
2018-03-24T04:05:41.470Z,55.60
2018-03-24T04:08:10.529Z,55.60
2018-03-24T04:10:39.625Z,55.50
2018-03-24T04:13:08.693Z,55.90
2018-03-24T04:15:37.759Z,57.00
2018-03-24T04:18:06.877Z,57.20
2018-03-24T04:20:35.945Z,56.80
2018-03-24T04:23:05.005Z,56.30
2018-03-24T04:25:34.070Z,56.30
2018-03-24T04:28:03.929Z,55.60
2018-03-24T04:30:32.995Z,55.60
2018-03-24T04:33:02.058Z,55.90
2018-03-24T04:35:31.122Z,56.30
2018-03-24T04:38:00.949Z,56.10
2018-03-24T04:40:30.014Z,55.90
2018-03-24T04:42:59.143Z,55.90
2018-03-24T04:45:28.203Z,55.60
2018-03-24T04:47:57.330Z,55.80
2018-03-24T04:50:26.390Z,55.50
2018-03-24T04:52:55.454Z,55.60
2018-03-24T04:55:24.522Z,55.70
2018-03-24T04:57:54.582Z,55.60
2018-03-24T05:00:23.649Z,55.50
2018-03-24T05:02:52.710Z,55.60
2018-03-24T05:05:21.770Z,56.00
2018-03-24T05:07:50.834Z,55.80
2018-03-24T05:10:19.934Z,55.50
2018-03-24T05:12:48.997Z,55.50
2018-03-24T05:15:18.066Z,55.90
2018-03-24T05:17:47.131Z,57.00
2018-03-24T05:20:17.200Z,57.20
2018-03-24T05:22:46.399Z,57.10
2018-03-24T05:25:15.462Z,57.90
2018-03-24T05:27:44.557Z,57.20
2018-03-24T05:30:13.614Z,57.00
2018-03-24T05:32:43.493Z,56.60
2018-03-24T05:35:12.556Z,56.50
2018-03-24T05:37:42.378Z,56.40
2018-03-24T05:40:12.205Z,56.30
2018-03-24T05:42:42.249Z,56.20
2018-03-24T05:45:11.342Z,56.10
2018-03-24T05:47:41.183Z,55.60
2018-03-24T05:50:10.241Z,55.60
2018-03-24T05:52:39.525Z,55.90
2018-03-24T05:55:08.590Z,56.00
2018-03-24T05:57:37.658Z,55.90
2018-03-24T06:00:06.746Z,56.50
2018-03-24T06:02:35.812Z,56.20
2018-03-24T06:05:04.901Z,55.70
2018-03-24T06:07:34.178Z,55.60
2018-03-24T06:10:03.241Z,55.60
2018-03-24T06:12:32.299Z,55.70
2018-03-24T06:15:01.501Z,55.80
2018-03-24T06:17:30.572Z,55.90
2018-03-24T06:19:59.682Z,54.90
2018-03-24T06:22:28.798Z,54.60
2018-03-24T06:24:57.862Z,54.70
2018-03-24T06:27:26.922Z,55.00
2018-03-24T06:29:56.826Z,55.00
2018-03-24T06:32:26.690Z,55.10
2018-03-24T06:34:56.562Z,54.80
2018-03-24T06:37:25.624Z,54.70
2018-03-24T06:39:54.715Z,54.80
2018-03-24T06:42:23.778Z,54.30
2018-03-24T06:44:52.910Z,54.10
2018-03-24T06:47:21.967Z,53.60
2018-03-24T06:49:51.796Z,54.00
2018-03-24T06:52:21.628Z,53.60
2018-03-24T06:54:51.461Z,53.90
2018-03-24T06:57:21.350Z,53.60
2018-03-24T06:59:50.410Z,53.50
2018-03-24T07:02:19.473Z,53.40
2018-03-24T07:04:50.173Z,53.60
2018-03-24T07:07:19.248Z,53.50
2018-03-24T07:09:48.366Z,53.60
2018-03-24T07:12:18.204Z,53.10
2018-03-24T07:14:47.365Z,53.10
2018-03-24T07:17:16.431Z,53.00
2018-03-24T07:19:45.541Z,52.70
2018-03-24T07:22:14.610Z,51.90
2018-03-24T07:24:43.746Z,51.90
2018-03-24T07:27:13.578Z,52.00
2018-03-24T07:29:43.417Z,52.00
2018-03-24T07:32:12.510Z,52.00
2018-03-24T07:34:42.478Z,51.50
2018-03-24T07:37:11.686Z,51.50
2018-03-24T07:39:41.003Z,51.60
2018-03-24T07:42:10.138Z,51.30
2018-03-24T07:44:39.213Z,50.90
2018-03-24T07:47:08.338Z,50.80
2018-03-24T07:49:37.462Z,50.80
2018-03-24T07:52:06.529Z,50.40
2018-03-24T07:54:36.430Z,50.00
2018-03-24T07:57:06.223Z,49.90
2018-03-24T07:59:35.303Z,49.80
2018-03-24T08:02:04.372Z,49.60
2018-03-24T08:04:33.437Z,49.10
2018-03-24T08:07:02.502Z,49.70
2018-03-24T08:09:31.622Z,50.00
2018-03-24T08:12:01.497Z,49.70
2018-03-24T08:14:30.565Z,49.00
2018-03-24T08:17:00.433Z,48.80
2018-03-24T08:19:29.506Z,48.80
2018-03-24T08:21:59.399Z,48.30
2018-03-24T08:24:29.237Z,47.20
2018-03-24T08:26:59.098Z,47.80
2018-03-24T08:29:29.001Z,47.80
2018-03-24T08:31:58.075Z,47.80
2018-03-24T08:34:27.142Z,47.20
2018-03-24T08:36:57.007Z,47.10
2018-03-24T08:39:26.082Z,47.10
2018-03-24T08:41:55.994Z,46.60
2018-03-24T08:44:25.078Z,46.60
2018-03-24T08:46:54.154Z,46.60
2018-03-24T08:49:23.229Z,46.80
2018-03-24T08:51:53.062Z,45.40
2018-03-24T08:54:22.893Z,46.40
2018-03-24T08:56:52.729Z,45.70
2018-03-24T08:59:21.801Z,45.70
2018-03-24T09:01:50.882Z,45.50
2018-03-24T09:04:19.999Z,45.30
2018-03-24T09:06:49.070Z,45.50
2018-03-24T09:09:18.133Z,45.10
2018-03-24T09:11:47.204Z,44.50
2018-03-24T09:14:16.340Z,44.50
2018-03-24T09:16:45.546Z,44.70
2018-03-24T09:19:14.650Z,44.60
2018-03-24T09:21:43.717Z,45.00
2018-03-24T09:24:13.553Z,44.60
2018-03-24T09:26:43.386Z,45.40
2018-03-24T09:29:13.223Z,44.60
2018-03-24T09:31:42.294Z,44.60
2018-03-24T09:34:11.362Z,44.70
2018-03-24T09:36:40.482Z,44.30
2018-03-24T09:39:09.566Z,44.10
2018-03-24T09:41:38.633Z,43.80
2018-03-24T09:44:07.707Z,43.10
2018-03-24T09:46:37.318Z,42.90
2018-03-24T09:49:06.386Z,42.80
2018-03-24T09:51:35.462Z,42.20
2018-03-24T09:54:04.562Z,42.20
2018-03-24T09:56:33.645Z,42.30
2018-03-24T09:59:02.981Z,42.40
2018-03-24T10:01:32.058Z,41.90
2018-03-24T10:04:01.893Z,41.10
2018-03-24T10:06:30.974Z,41.10
2018-03-24T10:09:00.233Z,40.60
2018-03-24T10:11:29.407Z,39.80
2018-03-24T10:13:59.282Z,40.40
2018-03-24T10:16:28.355Z,40.40
2018-03-24T10:18:58.194Z,40.00
2018-03-24T10:24:49.479Z,39.00
2018-03-24T10:27:18.582Z,39.00
2018-03-24T10:29:47.677Z,38.70
2018-03-24T10:32:17.566Z,38.00
2018-03-24T10:37:48.778Z,37.20
2018-03-24T10:40:17.854Z,37.20
2018-03-24T10:42:52.486Z,36.90
2018-03-24T10:45:21.618Z,36.20
2018-03-24T10:47:50.686Z,35.30
2018-03-24T10:50:19.852Z,34.20
2018-03-24T10:52:49.718Z,34.80
2018-03-24T10:55:19.556Z,34.90
2018-03-24T10:57:48.802Z,34.80
2018-03-24T11:00:17.906Z,34.10
2018-03-24T11:02:46.973Z,34.10
2018-03-24T11:05:16.858Z,34.60
2018-03-24T11:07:45.901Z,34.50
2018-03-24T11:10:14.997Z,34.80
2018-03-24T11:12:44.109Z,35.60
2018-03-24T11:15:13.183Z,34.80
2018-03-24T11:17:42.265Z,35.30
2018-03-24T11:20:11.446Z,35.50
2018-03-24T11:22:40.513Z,35.20
2018-03-24T11:25:09.810Z,36.40
2018-03-24T11:27:38.902Z,35.80
2018-03-24T11:30:08.737Z,35.70
2018-03-24T11:32:37.815Z,35.70
2018-03-24T11:35:06.890Z,35.60
2018-03-24T11:37:36.161Z,34.50
2018-03-24T11:40:05.998Z,34.10
2018-03-24T11:42:35.131Z,34.70
2018-03-24T11:45:04.207Z,33.20
2018-03-24T11:47:34.050Z,33.80
2018-03-24T11:50:03.123Z,33.70
2018-03-24T11:52:32.389Z,34.10
2018-03-24T11:55:01.522Z,33.90
2018-03-24T11:57:30.589Z,33.50
2018-03-24T12:00:09.051Z,34.20
2018-03-24T12:02:38.125Z,34.00
2018-03-24T12:05:07.962Z,33.60
2018-03-24T12:07:37.034Z,33.60
2018-03-24T12:10:06.105Z,33.60
2018-03-24T12:12:35.246Z,33.90
2018-03-24T12:15:04.323Z,33.00
2018-03-24T12:17:33.394Z,33.10
2018-03-24T12:20:03.229Z,34.20
2018-03-24T12:22:33.105Z,33.60
2018-03-24T12:25:03.010Z,33.20
2018-03-24T12:27:32.138Z,33.10
2018-03-24T12:30:01.206Z,33.20
2018-03-24T12:32:31.086Z,33.70
2018-03-24T12:35:00.162Z,33.60
2018-03-24T12:37:29.230Z,32.90
2018-03-24T12:39:58.366Z,32.80
2018-03-24T12:42:28.254Z,33.00
2018-03-24T12:44:57.317Z,33.00
2018-03-24T12:47:26.422Z,32.20
2018-03-24T12:49:55.509Z,32.80
2018-03-24T12:52:24.580Z,33.60
2018-03-24T12:54:53.658Z,32.60
2018-03-24T12:57:22.899Z,33.70
2018-03-24T12:59:51.998Z,32.90
2018-03-24T13:02:21.080Z,32.90
2018-03-24T13:04:50.175Z,32.10
2018-03-24T13:07:20.020Z,34.20
2018-03-24T13:09:49.149Z,34.00
2018-03-24T13:12:18.270Z,33.90
2018-03-24T13:14:47.351Z,32.90
2018-03-24T13:17:16.426Z,33.00
2018-03-24T13:19:46.326Z,31.10
2018-03-24T13:22:15.386Z,31.10
2018-03-24T13:24:45.266Z,30.60
2018-03-24T13:27:14.354Z,30.60
2018-03-24T13:29:43.678Z,30.20
2018-03-24T13:32:12.917Z,30.70
2018-03-24T13:34:42.056Z,30.90
2018-03-24T13:37:11.905Z,30.60
2018-03-24T13:39:40.988Z,30.50
2018-03-24T13:42:10.070Z,32.50
2018-03-24T13:44:39.136Z,34.10
2018-03-24T13:47:08.209Z,33.90
2018-03-24T13:49:37.365Z,33.60
2018-03-24T13:52:06.433Z,33.10
2018-03-24T13:54:35.511Z,31.90
2018-03-24T13:57:04.593Z,31.70
2018-03-24T13:59:33.710Z,31.00
2018-03-24T14:02:02.794Z,31.50
2018-03-24T14:04:32.769Z,31.60
2018-03-24T14:07:01.869Z,31.60
2018-03-24T14:09:31.729Z,31.30
2018-03-24T14:12:00.819Z,31.30
2018-03-24T14:14:29.914Z,30.70
2018-03-24T14:16:59.049Z,30.70
2018-03-24T14:19:28.146Z,30.40
2018-03-24T14:21:57.235Z,30.50
2018-03-24T14:24:26.319Z,30.80
2018-03-24T14:26:55.419Z,31.20
2018-03-24T14:29:24.567Z,32.00
2018-03-24T14:31:53.649Z,31.50
2018-03-24T14:34:23.499Z,32.00
2018-03-24T14:36:52.721Z,32.80
2018-03-24T14:39:21.786Z,33.80
2018-03-24T14:41:51.618Z,33.80
2018-03-24T14:44:21.461Z,32.80
2018-03-24T14:46:51.298Z,32.30
2018-03-24T14:49:20.370Z,32.30
2018-03-24T14:51:49.475Z,32.80
2018-03-24T14:54:18.544Z,33.00
2018-03-24T14:56:47.606Z,33.40
2018-03-24T14:59:16.758Z,32.90
2018-03-24T15:01:45.877Z,33.80
2018-03-24T15:04:14.937Z,33.50
2018-03-24T15:06:44.010Z,34.10
2018-03-24T15:09:13.118Z,34.40
2018-03-24T15:11:42.186Z,34.40
2018-03-24T15:14:12.019Z,33.80
2018-03-24T15:16:41.850Z,34.00
2018-03-24T15:19:11.685Z,33.90
2018-03-24T15:21:40.749Z,33.80
2018-03-24T15:24:09.824Z,33.30
2018-03-24T15:26:38.896Z,33.10
2018-03-24T15:29:26.613Z,32.20
2018-03-24T15:32:13.624Z,32.10
2018-03-24T15:35:00.774Z,33.20
2018-03-24T15:37:29.847Z,32.10
2018-03-24T15:39:58.915Z,33.80
2018-03-24T15:42:27.981Z,33.10
2018-03-24T15:44:57.046Z,33.40
2018-03-24T15:47:26.873Z,33.80
2018-03-24T15:49:56.698Z,34.40
2018-03-24T15:52:25.762Z,33.80
2018-03-24T15:54:54.827Z,34.10
2018-03-24T15:57:24.661Z,35.00
2018-03-24T15:59:54.498Z,35.10
2018-03-24T16:02:23.575Z,35.10
2018-03-24T16:04:52.674Z,35.40
2018-03-24T16:07:21.766Z,35.90
2018-03-24T16:09:50.838Z,35.70
2018-03-24T16:12:19.946Z,36.20
2018-03-24T16:14:49.168Z,36.60
2018-03-24T16:17:18.228Z,36.90
2018-03-24T16:19:47.321Z,37.10
2018-03-24T16:22:16.395Z,37.10
2018-03-24T16:24:45.481Z,37.20
2018-03-24T16:27:16.061Z,37.70
2018-03-24T16:29:45.170Z,37.60
2018-03-24T16:32:14.235Z,37.80
2018-03-24T16:34:43.301Z,39.20
2018-03-24T16:37:12.626Z,38.80
2018-03-24T16:39:41.726Z,39.20
2018-03-24T16:42:11.636Z,39.20
2018-03-24T16:44:40.735Z,39.20
2018-03-24T16:47:09.830Z,39.60
2018-03-24T16:49:39.714Z,39.50
2018-03-24T16:52:08.813Z,39.50
2018-03-24T16:54:37.887Z,39.30
2018-03-24T16:57:08.424Z,40.00
2018-03-24T16:59:38.318Z,40.80
2018-03-24T17:02:07.390Z,40.70
2018-03-24T17:04:36.464Z,40.80
2018-03-24T17:07:05.536Z,40.20
2018-03-24T17:09:34.905Z,40.70
2018-03-24T17:12:06.850Z,40.60
2018-03-24T17:14:36.166Z,40.60
2018-03-24T17:17:05.264Z,42.20
2018-03-24T17:19:34.895Z,42.20
2018-03-24T17:22:03.970Z,42.70
2018-03-24T17:24:33.038Z,42.80
2018-03-24T17:27:02.914Z,43.70
2018-03-24T17:29:31.995Z,43.60
2018-03-24T17:32:01.077Z,44.50
2018-03-24T17:34:31.708Z,44.70
2018-03-24T17:37:00.778Z,44.70
2018-03-24T17:39:29.853Z,45.00
2018-03-24T17:41:59.691Z,45.80
2018-03-24T17:44:29.526Z,45.30
2018-03-24T17:46:59.418Z,45.60
2018-03-24T17:49:28.546Z,45.60
2018-03-24T17:51:57.646Z,45.70
2018-03-24T17:54:26.788Z,46.70
2018-03-24T17:56:55.932Z,46.70
2018-03-24T17:59:24.998Z,46.50
2018-03-24T18:01:54.922Z,46.90
2018-03-24T18:04:24.770Z,47.00
2018-03-24T18:06:53.838Z,46.90
2018-03-24T18:09:22.938Z,47.20
2018-03-24T18:11:52.053Z,48.20
2018-03-24T18:14:21.119Z,48.20
2018-03-24T18:16:50.200Z,48.10
2018-03-24T18:19:20.047Z,48.10
2018-03-24T18:21:49.157Z,48.10
2018-03-24T18:24:18.230Z,48.10
2018-03-24T18:26:47.310Z,48.10
2018-03-24T18:29:16.386Z,48.50
2018-03-24T18:31:45.535Z,48.10
2018-03-24T18:34:14.601Z,48.10
2018-03-24T18:36:43.729Z,48.10
2018-03-24T18:39:12.806Z,48.70
2018-03-24T18:41:42.650Z,49.30
2018-03-24T18:44:11.853Z,48.70
2018-03-24T18:46:41.769Z,49.00
2018-03-24T18:49:10.876Z,49.00
2018-03-24T18:51:39.971Z,48.90
2018-03-24T18:54:09.041Z,49.30
2018-03-24T18:56:38.114Z,49.70
2018-03-24T18:59:07.945Z,50.10
2018-03-24T19:01:37.787Z,50.10
2018-03-24T19:04:06.938Z,50.10
2018-03-24T19:06:36.038Z,50.20
2018-03-24T19:09:05.934Z,50.40
2018-03-24T19:11:35.806Z,50.80
2018-03-24T19:14:04.901Z,50.80
2018-03-24T19:16:34.067Z,50.90
2018-03-24T19:19:03.906Z,51.00
2018-03-24T19:21:33.743Z,51.90
2018-03-24T19:24:02.847Z,51.90
2018-03-24T19:26:32.677Z,51.90
2018-03-24T19:29:02.563Z,51.90
2018-03-24T19:31:31.683Z,51.80
2018-03-24T19:34:00.729Z,51.90
2018-03-24T19:36:30.567Z,51.80
2018-03-24T19:38:59.633Z,51.80
2018-03-24T19:41:28.748Z,51.70
2018-03-24T19:43:57.829Z,51.70
2018-03-24T19:46:26.901Z,51.70
2018-03-24T19:48:56.007Z,51.90
2018-03-24T19:51:25.079Z,51.70
2018-03-24T19:53:54.145Z,52.30
2018-03-24T19:56:23.217Z,52.80
2018-03-24T19:58:53.248Z,53.30
2018-03-24T20:01:23.091Z,53.70
2018-03-24T20:03:53.146Z,53.20
2018-03-24T20:06:22.288Z,53.10
2018-03-24T20:08:51.405Z,53.00
2018-03-24T20:11:20.449Z,52.90
2018-03-24T20:13:49.521Z,52.90
2018-03-24T20:16:18.627Z,53.10
2018-03-24T20:18:47.734Z,53.10
2018-03-24T20:21:16.821Z,53.10
2018-03-24T20:23:45.962Z,53.30
2018-03-24T20:26:15.034Z,53.20
2018-03-24T20:28:44.167Z,53.20
2018-03-24T20:31:13.241Z,53.40
2018-03-24T20:33:42.361Z,53.50
2018-03-24T20:36:11.435Z,54.10
2018-03-24T20:38:40.506Z,54.50
2018-03-24T20:41:09.605Z,54.70
2018-03-24T20:43:38.690Z,54.90
2018-03-24T20:46:07.810Z,54.90
2018-03-24T20:48:36.874Z,55.50
2018-03-24T20:51:05.946Z,55.40
2018-03-24T20:53:35.100Z,55.40
2018-03-24T20:56:04.193Z,55.40
2018-03-24T20:58:33.265Z,55.30
2018-03-24T21:01:02.368Z,55.40
2018-03-24T21:03:31.545Z,55.30
2018-03-24T21:06:00.687Z,55.30
2018-03-24T21:08:30.258Z,55.30
2018-03-24T21:10:59.328Z,55.20
2018-03-24T21:13:28.410Z,55.30
2018-03-24T21:15:58.311Z,56.70
2018-03-24T21:18:27.571Z,56.70
2018-03-24T21:20:56.649Z,56.70
2018-03-24T21:23:25.773Z,57.70
2018-03-24T21:25:55.658Z,58.20
2018-03-24T21:28:24.730Z,58.20
2018-03-24T21:30:53.819Z,58.50
2018-03-24T21:33:23.680Z,59.10
2018-03-24T21:35:52.753Z,59.10
2018-03-24T21:38:21.826Z,59.00
2018-03-24T21:40:50.906Z,59.10
2018-03-24T21:43:19.978Z,58.80
2018-03-24T21:45:49.074Z,58.50
2018-03-24T21:48:18.144Z,58.10
2018-03-24T21:50:47.297Z,57.80
2018-03-24T21:53:16.390Z,57.50
2018-03-24T21:55:45.457Z,57.50
2018-03-24T21:58:14.526Z,56.70
2018-03-24T22:00:43.954Z,56.70
2018-03-24T22:03:13.031Z,56.40
2018-03-24T22:05:42.951Z,56.40
2018-03-24T22:08:12.070Z,56.40
2018-03-24T22:10:41.137Z,56.60
2018-03-24T22:13:10.226Z,56.70
2018-03-24T22:15:39.366Z,57.20
2018-03-24T22:18:08.433Z,57.10
2018-03-24T22:20:37.516Z,57.10
2018-03-24T22:23:06.593Z,57.70
2018-03-24T22:25:35.698Z,57.70
2018-03-24T22:28:05.642Z,58.10
2018-03-24T22:30:34.720Z,58.00
2018-03-24T22:33:03.795Z,58.80
2018-03-24T22:35:33.099Z,59.30
2018-03-24T22:38:02.178Z,58.90
2018-03-24T22:40:31.323Z,58.90
2018-03-24T22:43:00.406Z,58.80
2018-03-24T22:45:29.480Z,58.90
2018-03-24T22:47:58.549Z,58.80
2018-03-24T22:50:27.863Z,59.60
2018-03-24T22:52:56.933Z,60.70
2018-03-24T22:55:26.766Z,60.20
2018-03-24T22:57:56.855Z,59.60
2018-03-24T23:00:25.922Z,59.60
2018-03-24T23:02:55.026Z,59.30
2018-03-24T23:05:24.362Z,59.20
2018-03-24T23:07:53.578Z,58.80
2018-03-24T23:10:22.657Z,58.80
2018-03-24T23:12:52.494Z,58.80
2018-03-24T23:15:21.640Z,58.70
2018-03-24T23:17:50.713Z,58.70
2018-03-24T23:20:19.823Z,58.80
2018-03-24T23:22:48.897Z,58.60
2018-03-24T23:25:17.975Z,58.60
2018-03-24T23:27:47.103Z,58.60
2018-03-24T23:30:16.213Z,58.70
2018-03-24T23:32:45.276Z,58.70
2018-03-24T23:35:14.370Z,58.60
2018-03-24T23:37:44.242Z,58.70
2018-03-24T23:40:14.065Z,58.60
2018-03-24T23:42:43.473Z,58.60
2018-03-24T23:45:12.537Z,58.60
2018-03-24T23:47:41.606Z,58.60
2018-03-24T23:50:10.676Z,58.60
2018-03-24T23:52:40.505Z,58.50
2018-03-24T23:55:10.333Z,58.40
2018-03-24T23:57:40.162Z,58.40
